sensor_id;sensor_type;location;lat;lon;timestamp;P1;durP1;ratioP1;P2;durP2;ratioP2
58242;SDS011;50118;53.232;8.252;2023-02-23T00:01:32;41.58;;;20.38;;
58242;SDS011;50118;53.232;8.252;2023-02-23T00:03:58;48.00;;;22.65;;
58242;SDS011;50118;53.232;8.252;2023-02-23T00:06:27;41.25;;;21.13;;
58242;SDS011;50118;53.232;8.252;2023-02-23T00:08:53;42.63;;;21.48;;
58242;SDS011;50118;53.232;8.252;2023-02-23T00:11:19;35.55;;;18.55;;
58242;SDS011;50118;53.232;8.252;2023-02-23T00:13:46;37.47;;;19.23;;
58242;SDS011;50118;53.232;8.252;2023-02-23T00:16:21;40.22;;;20.40;;
58242;SDS011;50118;53.232;8.252;2023-02-23T00:18:51;42.63;;;20.90;;
58242;SDS011;50118;53.232;8.252;2023-02-23T00:23:53;51.15;;;22.83;;
58242;SDS011;50118;53.232;8.252;2023-02-23T00:26:22;51.30;;;24.25;;
58242;SDS011;50118;53.232;8.252;2023-02-23T00:28:49;49.20;;;23.45;;
58242;SDS011;50118;53.232;8.252;2023-02-23T00:31:15;49.15;;;23.77;;
58242;SDS011;50118;53.232;8.252;2023-02-23T00:33:41;46.95;;;24.70;;
58242;SDS011;50118;53.232;8.252;2023-02-23T00:36:11;48.00;;;24.27;;
58242;SDS011;50118;53.232;8.252;2023-02-23T00:38:39;54.33;;;23.52;;
58242;SDS011;50118;53.232;8.252;2023-02-23T00:41:09;57.80;;;27.17;;
58242;SDS011;50118;53.232;8.252;2023-02-23T00:43:41;54.28;;;25.20;;
58242;SDS011;50118;53.232;8.252;2023-02-23T00:46:12;53.63;;;26.25;;
58242;SDS011;50118;53.232;8.252;2023-02-23T00:48:42;59.35;;;27.92;;
58242;SDS011;50118;53.232;8.252;2023-02-23T00:51:09;60.58;;;27.83;;
58242;SDS011;50118;53.232;8.252;2023-02-23T00:53:35;65.05;;;28.58;;
58242;SDS011;50118;53.232;8.252;2023-02-23T00:56:04;62.05;;;27.77;;
58242;SDS011;50118;53.232;8.252;2023-02-23T00:58:30;65.70;;;30.15;;
58242;SDS011;50118;53.232;8.252;2023-02-23T01:00:56;53.55;;;27.25;;
58242;SDS011;50118;53.232;8.252;2023-02-23T01:03:26;62.03;;;29.00;;
58242;SDS011;50118;53.232;8.252;2023-02-23T01:05:53;61.42;;;28.67;;
58242;SDS011;50118;53.232;8.252;2023-02-23T01:08:23;57.25;;;25.98;;
58242;SDS011;50118;53.232;8.252;2023-02-23T01:10:48;57.33;;;28.67;;
58242;SDS011;50118;53.232;8.252;2023-02-23T01:13:20;56.33;;;27.60;;
58242;SDS011;50118;53.232;8.252;2023-02-23T01:15:46;64.72;;;29.25;;
58242;SDS011;50118;53.232;8.252;2023-02-23T01:18:12;57.60;;;26.77;;
58242;SDS011;50118;53.232;8.252;2023-02-23T01:20:39;58.40;;;29.13;;
58242;SDS011;50118;53.232;8.252;2023-02-23T01:23:07;64.15;;;29.23;;
58242;SDS011;50118;53.232;8.252;2023-02-23T01:25:37;62.47;;;27.58;;
58242;SDS011;50118;53.232;8.252;2023-02-23T01:28:02;71.63;;;29.98;;
58242;SDS011;50118;53.232;8.252;2023-02-23T01:30:28;65.28;;;29.33;;
58242;SDS011;50118;53.232;8.252;2023-02-23T01:32:54;66.88;;;28.48;;
58242;SDS011;50118;53.232;8.252;2023-02-23T01:35:20;64.57;;;28.00;;
58242;SDS011;50118;53.232;8.252;2023-02-23T01:37:45;70.47;;;30.20;;
58242;SDS011;50118;53.232;8.252;2023-02-23T01:40:12;68.18;;;29.98;;
58242;SDS011;50118;53.232;8.252;2023-02-23T01:42:43;64.82;;;28.55;;
58242;SDS011;50118;53.232;8.252;2023-02-23T01:45:16;68.68;;;28.23;;
58242;SDS011;50118;53.232;8.252;2023-02-23T01:47:56;73.82;;;29.00;;
58242;SDS011;50118;53.232;8.252;2023-02-23T01:50:28;79.82;;;32.13;;
58242;SDS011;50118;53.232;8.252;2023-02-23T01:52:56;86.20;;;31.05;;
58242;SDS011;50118;53.232;8.252;2023-02-23T01:55:23;84.00;;;32.38;;
58242;SDS011;50118;53.232;8.252;2023-02-23T01:57:54;82.30;;;29.70;;
58242;SDS011;50118;53.232;8.252;2023-02-23T02:00:24;78.70;;;30.27;;
58242;SDS011;50118;53.232;8.252;2023-02-23T02:02:51;76.82;;;30.58;;
58242;SDS011;50118;53.232;8.252;2023-02-23T02:05:16;78.35;;;29.85;;
58242;SDS011;50118;53.232;8.252;2023-02-23T02:07:44;74.13;;;30.00;;
58242;SDS011;50118;53.232;8.252;2023-02-23T02:10:12;76.13;;;28.52;;
58242;SDS011;50118;53.232;8.252;2023-02-23T02:12:39;77.50;;;30.73;;
58242;SDS011;50118;53.232;8.252;2023-02-23T02:15:08;80.32;;;29.92;;
58242;SDS011;50118;53.232;8.252;2023-02-23T02:43:02;78.85;;;27.95;;
58242;SDS011;50118;53.232;8.252;2023-02-23T02:48:31;70.28;;;27.58;;
58242;SDS011;50118;53.232;8.252;2023-02-23T02:51:12;72.53;;;27.15;;
58242;SDS011;50118;53.232;8.252;2023-02-23T02:53:47;76.47;;;27.33;;
58242;SDS011;50118;53.232;8.252;2023-02-23T02:56:23;80.18;;;26.38;;
58242;SDS011;50118;53.232;8.252;2023-02-23T02:58:51;70.35;;;26.17;;
58242;SDS011;50118;53.232;8.252;2023-02-23T03:01:18;69.10;;;26.15;;
58242;SDS011;50118;53.232;8.252;2023-02-23T03:04:22;73.53;;;26.60;;
58242;SDS011;50118;53.232;8.252;2023-02-23T03:07:26;76.32;;;26.90;;
58242;SDS011;50118;53.232;8.252;2023-02-23T03:10:20;74.20;;;26.23;;
58242;SDS011;50118;53.232;8.252;2023-02-23T03:13:10;68.85;;;26.08;;
58242;SDS011;50118;53.232;8.252;2023-02-23T03:16:25;77.22;;;27.90;;
58242;SDS011;50118;53.232;8.252;2023-02-23T03:19:26;72.57;;;25.73;;
58242;SDS011;50118;53.232;8.252;2023-02-23T03:22:21;78.13;;;28.42;;
58242;SDS011;50118;53.232;8.252;2023-02-23T03:25:13;82.15;;;27.60;;
58242;SDS011;50118;53.232;8.252;2023-02-23T03:31:29;80.97;;;28.45;;
58242;SDS011;50118;53.232;8.252;2023-02-23T03:34:26;78.97;;;26.70;;
58242;SDS011;50118;53.232;8.252;2023-02-23T03:37:17;85.77;;;29.57;;
58242;SDS011;50118;53.232;8.252;2023-02-23T03:43:07;89.13;;;28.92;;
58242;SDS011;50118;53.232;8.252;2023-02-23T03:45:55;87.03;;;28.58;;
58242;SDS011;50118;53.232;8.252;2023-02-23T03:48:42;91.55;;;30.05;;
58242;SDS011;50118;53.232;8.252;2023-02-23T03:51:30;87.82;;;29.92;;
58242;SDS011;50118;53.232;8.252;2023-02-23T03:54:39;89.03;;;29.38;;
58242;SDS011;50118;53.232;8.252;2023-02-23T03:57:35;76.07;;;27.55;;
58242;SDS011;50118;53.232;8.252;2023-02-23T04:00:28;92.72;;;30.27;;
58242;SDS011;50118;53.232;8.252;2023-02-23T04:03:15;93.03;;;31.15;;
58242;SDS011;50118;53.232;8.252;2023-02-23T04:06:02;90.32;;;30.00;;
58242;SDS011;50118;53.232;8.252;2023-02-23T04:08:49;90.20;;;30.75;;
58242;SDS011;50118;53.232;8.252;2023-02-23T04:14:42;90.22;;;30.63;;
58242;SDS011;50118;53.232;8.252;2023-02-23T04:17:15;87.57;;;29.08;;
58242;SDS011;50118;53.232;8.252;2023-02-23T04:19:49;88.28;;;29.05;;
58242;SDS011;50118;53.232;8.252;2023-02-23T04:22:15;91.63;;;31.25;;
58242;SDS011;50118;53.232;8.252;2023-02-23T04:24:41;104.55;;;33.72;;
58242;SDS011;50118;53.232;8.252;2023-02-23T04:27:06;95.57;;;31.92;;
58242;SDS011;50118;53.232;8.252;2023-02-23T04:29:32;103.93;;;32.75;;
58242;SDS011;50118;53.232;8.252;2023-02-23T04:31:57;116.07;;;32.45;;
58242;SDS011;50118;53.232;8.252;2023-02-23T04:34:22;99.72;;;31.70;;
58242;SDS011;50118;53.232;8.252;2023-02-23T04:36:48;102.88;;;34.15;;
58242;SDS011;50118;53.232;8.252;2023-02-23T04:39:15;106.03;;;35.72;;
58242;SDS011;50118;53.232;8.252;2023-02-23T04:41:41;103.03;;;34.08;;
58242;SDS011;50118;53.232;8.252;2023-02-23T04:44:06;98.28;;;33.17;;
58242;SDS011;50118;53.232;8.252;2023-02-23T04:46:31;96.20;;;31.33;;
58242;SDS011;50118;53.232;8.252;2023-02-23T04:48:57;102.88;;;33.92;;
58242;SDS011;50118;53.232;8.252;2023-02-23T04:51:23;102.38;;;33.15;;
58242;SDS011;50118;53.232;8.252;2023-02-23T04:53:48;100.70;;;34.38;;
58242;SDS011;50118;53.232;8.252;2023-02-23T04:56:14;91.68;;;32.35;;
58242;SDS011;50118;53.232;8.252;2023-02-23T04:58:40;97.15;;;32.70;;
58242;SDS011;50118;53.232;8.252;2023-02-23T05:01:06;103.07;;;33.78;;
58242;SDS011;50118;53.232;8.252;2023-02-23T05:03:33;103.05;;;34.30;;
58242;SDS011;50118;53.232;8.252;2023-02-23T05:06:00;96.85;;;32.10;;
58242;SDS011;50118;53.232;8.252;2023-02-23T05:08:26;97.10;;;34.03;;
58242;SDS011;50118;53.232;8.252;2023-02-23T05:10:51;95.72;;;31.08;;
58242;SDS011;50118;53.232;8.252;2023-02-23T05:13:16;92.18;;;32.40;;
58242;SDS011;50118;53.232;8.252;2023-02-23T05:15:42;106.35;;;34.70;;
58242;SDS011;50118;53.232;8.252;2023-02-23T05:18:07;95.38;;;32.58;;
58242;SDS011;50118;53.232;8.252;2023-02-23T05:20:33;109.60;;;35.20;;
58242;SDS011;50118;53.232;8.252;2023-02-23T05:22:58;98.22;;;32.53;;
58242;SDS011;50118;53.232;8.252;2023-02-23T05:25:24;98.72;;;33.55;;
58242;SDS011;50118;53.232;8.252;2023-02-23T05:27:49;96.50;;;32.95;;
58242;SDS011;50118;53.232;8.252;2023-02-23T05:30:15;99.47;;;33.95;;
58242;SDS011;50118;53.232;8.252;2023-02-23T05:32:41;93.18;;;33.40;;
58242;SDS011;50118;53.232;8.252;2023-02-23T05:35:06;97.32;;;33.95;;
58242;SDS011;50118;53.232;8.252;2023-02-23T05:37:32;98.45;;;31.60;;
58242;SDS011;50118;53.232;8.252;2023-02-23T05:39:58;97.70;;;32.35;;
58242;SDS011;50118;53.232;8.252;2023-02-23T05:42:24;91.85;;;31.55;;
58242;SDS011;50118;53.232;8.252;2023-02-23T05:44:49;91.93;;;31.08;;
58242;SDS011;50118;53.232;8.252;2023-02-23T05:47:15;97.50;;;33.17;;
58242;SDS011;50118;53.232;8.252;2023-02-23T05:49:40;105.03;;;33.33;;
58242;SDS011;50118;53.232;8.252;2023-02-23T05:52:06;97.38;;;32.97;;
58242;SDS011;50118;53.232;8.252;2023-02-23T05:54:32;89.30;;;30.13;;
58242;SDS011;50118;53.232;8.252;2023-02-23T05:56:58;99.93;;;33.35;;
58242;SDS011;50118;53.232;8.252;2023-02-23T05:59:23;93.47;;;31.67;;
58242;SDS011;50118;53.232;8.252;2023-02-23T06:01:49;99.30;;;34.42;;
58242;SDS011;50118;53.232;8.252;2023-02-23T06:04:14;94.13;;;33.42;;
58242;SDS011;50118;53.232;8.252;2023-02-23T06:06:41;105.63;;;33.83;;
58242;SDS011;50118;53.232;8.252;2023-02-23T06:09:07;105.53;;;34.70;;
58242;SDS011;50118;53.232;8.252;2023-02-23T06:11:32;101.53;;;32.55;;
58242;SDS011;50118;53.232;8.252;2023-02-23T06:13:58;92.53;;;32.55;;
58242;SDS011;50118;53.232;8.252;2023-02-23T06:16:24;102.10;;;33.03;;
58242;SDS011;50118;53.232;8.252;2023-02-23T06:18:51;103.88;;;33.95;;
58242;SDS011;50118;53.232;8.252;2023-02-23T06:21:16;96.47;;;33.58;;
58242;SDS011;50118;53.232;8.252;2023-02-23T06:23:41;108.35;;;35.60;;
58242;SDS011;50118;53.232;8.252;2023-02-23T06:26:07;112.85;;;36.97;;
58242;SDS011;50118;53.232;8.252;2023-02-23T06:28:33;97.03;;;33.05;;
58242;SDS011;50118;53.232;8.252;2023-02-23T06:30:59;102.82;;;31.55;;
58242;SDS011;50118;53.232;8.252;2023-02-23T06:33:25;111.82;;;34.40;;
58242;SDS011;50118;53.232;8.252;2023-02-23T06:35:50;112.15;;;35.03;;
58242;SDS011;50118;53.232;8.252;2023-02-23T06:38:16;103.20;;;35.00;;
58242;SDS011;50118;53.232;8.252;2023-02-23T06:40:42;120.05;;;35.92;;
58242;SDS011;50118;53.232;8.252;2023-02-23T06:43:08;108.75;;;36.10;;
58242;SDS011;50118;53.232;8.252;2023-02-23T06:45:34;124.78;;;37.78;;
58242;SDS011;50118;53.232;8.252;2023-02-23T06:47:59;112.38;;;36.25;;
58242;SDS011;50118;53.232;8.252;2023-02-23T06:50:25;114.13;;;35.15;;
58242;SDS011;50118;53.232;8.252;2023-02-23T06:52:51;111.43;;;35.83;;
58242;SDS011;50118;53.232;8.252;2023-02-23T06:55:16;116.82;;;34.00;;
58242;SDS011;50118;53.232;8.252;2023-02-23T06:57:42;141.68;;;37.33;;
58242;SDS011;50118;53.232;8.252;2023-02-23T07:00:08;136.07;;;38.25;;
58242;SDS011;50118;53.232;8.252;2023-02-23T07:02:35;134.77;;;39.10;;
58242;SDS011;50118;53.232;8.252;2023-02-23T07:05:02;134.65;;;37.80;;
58242;SDS011;50118;53.232;8.252;2023-02-23T07:07:28;147.95;;;37.85;;
58242;SDS011;50118;53.232;8.252;2023-02-23T07:09:53;133.05;;;36.25;;
58242;SDS011;50118;53.232;8.252;2023-02-23T07:12:19;142.45;;;38.45;;
58242;SDS011;50118;53.232;8.252;2023-02-23T07:14:45;137.23;;;36.58;;
58242;SDS011;50118;53.232;8.252;2023-02-23T07:17:10;126.25;;;37.33;;
58242;SDS011;50118;53.232;8.252;2023-02-23T07:19:36;133.43;;;37.33;;
58242;SDS011;50118;53.232;8.252;2023-02-23T07:22:01;156.63;;;39.83;;
58242;SDS011;50118;53.232;8.252;2023-02-23T07:24:27;138.50;;;37.78;;
58242;SDS011;50118;53.232;8.252;2023-02-23T07:26:53;135.60;;;37.35;;
58242;SDS011;50118;53.232;8.252;2023-02-23T07:29:19;136.80;;;36.60;;
58242;SDS011;50118;53.232;8.252;2023-02-23T07:31:44;135.25;;;38.35;;
58242;SDS011;50118;53.232;8.252;2023-02-23T07:34:10;143.98;;;38.63;;
58242;SDS011;50118;53.232;8.252;2023-02-23T07:36:35;149.25;;;37.78;;
58242;SDS011;50118;53.232;8.252;2023-02-23T07:39:01;157.95;;;40.97;;
58242;SDS011;50118;53.232;8.252;2023-02-23T07:41:28;153.07;;;38.03;;
58242;SDS011;50118;53.232;8.252;2023-02-23T07:43:53;142.18;;;39.80;;
58242;SDS011;50118;53.232;8.252;2023-02-23T07:46:19;140.80;;;38.08;;
58242;SDS011;50118;53.232;8.252;2023-02-23T07:48:44;152.45;;;38.92;;
58242;SDS011;50118;53.232;8.252;2023-02-23T07:51:10;149.18;;;39.22;;
58242;SDS011;50118;53.232;8.252;2023-02-23T07:53:37;167.40;;;40.75;;
58242;SDS011;50118;53.232;8.252;2023-02-23T07:56:04;169.90;;;40.78;;
58242;SDS011;50118;53.232;8.252;2023-02-23T07:58:30;173.00;;;41.72;;
58242;SDS011;50118;53.232;8.252;2023-02-23T08:00:57;176.77;;;43.30;;
58242;SDS011;50118;53.232;8.252;2023-02-23T08:03:22;166.57;;;41.47;;
58242;SDS011;50118;53.232;8.252;2023-02-23T08:05:48;163.07;;;40.17;;
58242;SDS011;50118;53.232;8.252;2023-02-23T08:08:13;165.02;;;40.13;;
58242;SDS011;50118;53.232;8.252;2023-02-23T08:10:39;153.75;;;40.30;;
58242;SDS011;50118;53.232;8.252;2023-02-23T08:13:04;175.88;;;41.10;;
58242;SDS011;50118;53.232;8.252;2023-02-23T08:15:30;157.02;;;39.55;;
58242;SDS011;50118;53.232;8.252;2023-02-23T08:17:56;171.70;;;41.28;;
58242;SDS011;50118;53.232;8.252;2023-02-23T08:20:21;149.57;;;38.42;;
58242;SDS011;50118;53.232;8.252;2023-02-23T08:22:51;142.82;;;37.75;;
58242;SDS011;50118;53.232;8.252;2023-02-23T08:25:18;139.75;;;36.67;;
58242;SDS011;50118;53.232;8.252;2023-02-23T08:27:43;155.02;;;37.65;;
58242;SDS011;50118;53.232;8.252;2023-02-23T08:30:11;158.27;;;38.33;;
58242;SDS011;50118;53.232;8.252;2023-02-23T08:32:38;144.07;;;37.53;;
58242;SDS011;50118;53.232;8.252;2023-02-23T08:35:04;145.95;;;37.03;;
58242;SDS011;50118;53.232;8.252;2023-02-23T08:37:31;162.05;;;37.30;;
58242;SDS011;50118;53.232;8.252;2023-02-23T08:39:57;146.50;;;36.90;;
58242;SDS011;50118;53.232;8.252;2023-02-23T08:42:23;152.10;;;35.70;;
58242;SDS011;50118;53.232;8.252;2023-02-23T08:44:48;137.73;;;35.03;;
58242;SDS011;50118;53.232;8.252;2023-02-23T08:47:14;146.10;;;36.03;;
58242;SDS011;50118;53.232;8.252;2023-02-23T08:49:41;134.50;;;36.83;;
58242;SDS011;50118;53.232;8.252;2023-02-23T08:52:07;148.82;;;36.65;;
58242;SDS011;50118;53.232;8.252;2023-02-23T08:54:32;131.63;;;35.38;;
58242;SDS011;50118;53.232;8.252;2023-02-23T08:56:58;147.80;;;36.85;;
58242;SDS011;50118;53.232;8.252;2023-02-23T08:59:23;137.57;;;36.00;;
58242;SDS011;50118;53.232;8.252;2023-02-23T09:01:49;149.75;;;34.67;;
58242;SDS011;50118;53.232;8.252;2023-02-23T09:04:16;129.52;;;33.20;;
58242;SDS011;50118;53.232;8.252;2023-02-23T09:06:42;132.63;;;33.10;;
58242;SDS011;50118;53.232;8.252;2023-02-23T09:09:08;128.20;;;32.92;;
58242;SDS011;50118;53.232;8.252;2023-02-23T09:11:34;121.10;;;32.78;;
58242;SDS011;50118;53.232;8.252;2023-02-23T09:14:00;128.43;;;34.45;;
58242;SDS011;50118;53.232;8.252;2023-02-23T09:16:25;125.55;;;33.03;;
58242;SDS011;50118;53.232;8.252;2023-02-23T09:18:51;120.32;;;31.40;;
58242;SDS011;50118;53.232;8.252;2023-02-23T09:21:17;132.38;;;33.03;;
58242;SDS011;50118;53.232;8.252;2023-02-23T09:23:46;120.78;;;33.28;;
58242;SDS011;50118;53.232;8.252;2023-02-23T09:26:13;125.88;;;34.03;;
58242;SDS011;50118;53.232;8.252;2023-02-23T09:28:40;124.93;;;32.58;;
58242;SDS011;50118;53.232;8.252;2023-02-23T09:31:10;135.25;;;34.15;;
58242;SDS011;50118;53.232;8.252;2023-02-23T09:33:40;140.80;;;34.53;;
58242;SDS011;50118;53.232;8.252;2023-02-23T09:36:11;141.68;;;36.25;;
58242;SDS011;50118;53.232;8.252;2023-02-23T09:38:44;138.25;;;33.95;;
58242;SDS011;50118;53.232;8.252;2023-02-23T09:44:35;143.25;;;36.35;;
58242;SDS011;50118;53.232;8.252;2023-02-23T09:49:38;148.15;;;37.80;;
58242;SDS011;50118;53.232;8.252;2023-02-23T09:52:34;144.75;;;40.67;;
58242;SDS011;50118;53.232;8.252;2023-02-23T09:55:13;125.60;;;33.20;;
58242;SDS011;50118;53.232;8.252;2023-02-23T09:57:44;132.63;;;34.10;;
58242;SDS011;50118;53.232;8.252;2023-02-23T10:02:38;123.55;;;33.33;;
58242;SDS011;50118;53.232;8.252;2023-02-23T10:05:17;135.48;;;43.25;;
58242;SDS011;50118;53.232;8.252;2023-02-23T10:07:49;114.95;;;33.05;;
58242;SDS011;50118;53.232;8.252;2023-02-23T10:16:17;118.85;;;31.60;;
58242;SDS011;50118;53.232;8.252;2023-02-23T10:18:57;125.57;;;33.03;;
58242;SDS011;50118;53.232;8.252;2023-02-23T10:24:08;131.65;;;34.55;;
58242;SDS011;50118;53.232;8.252;2023-02-23T10:26:42;137.43;;;34.38;;
58242;SDS011;50118;53.232;8.252;2023-02-23T10:29:25;133.13;;;33.33;;
58242;SDS011;50118;53.232;8.252;2023-02-23T10:32:02;148.10;;;34.45;;
58242;SDS011;50118;53.232;8.252;2023-02-23T10:34:31;132.10;;;31.55;;
58242;SDS011;50118;53.232;8.252;2023-02-23T10:37:01;138.10;;;33.00;;
58242;SDS011;50118;53.232;8.252;2023-02-23T10:39:28;140.25;;;34.40;;
58242;SDS011;50118;53.232;8.252;2023-02-23T10:41:56;125.72;;;31.70;;
58242;SDS011;50118;53.232;8.252;2023-02-23T10:44:24;195.80;;;55.75;;
58242;SDS011;50118;53.232;8.252;2023-02-23T10:47:02;155.82;;;44.13;;
58242;SDS011;50118;53.232;8.252;2023-02-23T10:49:51;154.50;;;41.88;;
58242;SDS011;50118;53.232;8.252;2023-02-23T10:57:49;139.82;;;34.90;;
58242;SDS011;50118;53.232;8.252;2023-02-23T11:00:26;140.15;;;34.33;;
58242;SDS011;50118;53.232;8.252;2023-02-23T11:02:57;146.45;;;37.50;;
58242;SDS011;50118;53.232;8.252;2023-02-23T11:05:27;133.50;;;38.05;;
58242;SDS011;50118;53.232;8.252;2023-02-23T11:08:09;133.88;;;35.97;;
58242;SDS011;50118;53.232;8.252;2023-02-23T11:10:38;130.45;;;33.35;;
58242;SDS011;50118;53.232;8.252;2023-02-23T11:13:04;131.95;;;36.13;;
58242;SDS011;50118;53.232;8.252;2023-02-23T11:15:31;139.48;;;39.33;;
58242;SDS011;50118;53.232;8.252;2023-02-23T11:17:58;133.68;;;37.13;;
58242;SDS011;50118;53.232;8.252;2023-02-23T11:23:45;123.75;;;35.03;;
58242;SDS011;50118;53.232;8.252;2023-02-23T11:26:00;128.10;;;35.83;;
58242;SDS011;50118;53.232;8.252;2023-02-23T11:28:33;132.57;;;35.83;;
58242;SDS011;50118;53.232;8.252;2023-02-23T11:31:03;122.28;;;35.05;;
58242;SDS011;50118;53.232;8.252;2023-02-23T11:33:37;120.40;;;35.75;;
58242;SDS011;50118;53.232;8.252;2023-02-23T11:36:19;121.32;;;33.10;;
58242;SDS011;50118;53.232;8.252;2023-02-23T11:41:44;111.90;;;32.60;;
58242;SDS011;50118;53.232;8.252;2023-02-23T11:44:22;108.35;;;30.08;;
58242;SDS011;50118;53.232;8.252;2023-02-23T11:46:48;99.88;;;31.80;;
58242;SDS011;50118;53.232;8.252;2023-02-23T11:49:33;98.90;;;29.77;;
58242;SDS011;50118;53.232;8.252;2023-02-23T11:51:59;94.88;;;28.30;;
58242;SDS011;50118;53.232;8.252;2023-02-23T11:54:28;94.80;;;29.25;;
58242;SDS011;50118;53.232;8.252;2023-02-23T11:56:58;81.80;;;26.50;;
58242;SDS011;50118;53.232;8.252;2023-02-23T11:59:34;80.53;;;26.10;;
58242;SDS011;50118;53.232;8.252;2023-02-23T12:05:16;80.70;;;26.02;;
58242;SDS011;50118;53.232;8.252;2023-02-23T12:07:49;73.68;;;25.50;;
58242;SDS011;50118;53.232;8.252;2023-02-23T12:21:28;64.65;;;21.38;;
58242;SDS011;50118;53.232;8.252;2023-02-23T12:26:39;71.63;;;22.50;;
58242;SDS011;50118;53.232;8.252;2023-02-23T12:32:22;67.47;;;22.10;;
58242;SDS011;50118;53.232;8.252;2023-02-23T12:34:55;98.75;;;37.45;;
58242;SDS011;50118;53.232;8.252;2023-02-23T12:40:20;69.43;;;25.75;;
58242;SDS011;50118;53.232;8.252;2023-02-23T12:43:02;61.60;;;22.52;;
58242;SDS011;50118;53.232;8.252;2023-02-23T12:45:47;59.00;;;20.13;;
58242;SDS011;50118;53.232;8.252;2023-02-23T12:51:14;59.50;;;20.58;;
58242;SDS011;50118;53.232;8.252;2023-02-23T12:53:45;57.55;;;20.00;;
58242;SDS011;50118;53.232;8.252;2023-02-23T12:59:08;72.63;;;29.80;;
58242;SDS011;50118;53.232;8.252;2023-02-23T13:01:58;61.80;;;22.88;;
58242;SDS011;50118;53.232;8.252;2023-02-23T13:31:47;45.22;;;15.80;;
58242;SDS011;50118;53.232;8.252;2023-02-23T13:34:15;43.10;;;14.88;;
58242;SDS011;50118;53.232;8.252;2023-02-23T13:36:51;45.83;;;15.95;;
58242;SDS011;50118;53.232;8.252;2023-02-23T13:42:12;46.90;;;17.35;;
58242;SDS011;50118;53.232;8.252;2023-02-23T13:47:18;49.58;;;17.67;;
58242;SDS011;50118;53.232;8.252;2023-02-23T13:50:01;44.55;;;17.10;;
58242;SDS011;50118;53.232;8.252;2023-02-23T13:55:04;47.08;;;18.08;;
58242;SDS011;50118;53.232;8.252;2023-02-23T13:57:52;42.97;;;15.60;;
58242;SDS011;50118;53.232;8.252;2023-02-23T14:00:19;47.83;;;16.15;;
58242;SDS011;50118;53.232;8.252;2023-02-23T14:02:46;42.45;;;15.27;;
58242;SDS011;50118;53.232;8.252;2023-02-23T14:05:20;46.42;;;15.95;;
58242;SDS011;50118;53.232;8.252;2023-02-23T14:07:50;45.35;;;14.98;;
58242;SDS011;50118;53.232;8.252;2023-02-23T14:15:48;40.53;;;13.88;;
58242;SDS011;50118;53.232;8.252;2023-02-23T14:18:31;42.20;;;13.65;;
58242;SDS011;50118;53.232;8.252;2023-02-23T14:21:12;39.13;;;13.48;;
58242;SDS011;50118;53.232;8.252;2023-02-23T14:31:52;37.25;;;13.73;;
58242;SDS011;50118;53.232;8.252;2023-02-23T14:34:18;40.38;;;13.93;;
58242;SDS011;50118;53.232;8.252;2023-02-23T14:36:47;41.08;;;13.70;;
58242;SDS011;50118;53.232;8.252;2023-02-23T14:39:17;40.67;;;13.18;;
58242;SDS011;50118;53.232;8.252;2023-02-23T14:41:52;45.75;;;14.52;;
58242;SDS011;50118;53.232;8.252;2023-02-23T14:47:06;49.72;;;16.48;;
58242;SDS011;50118;53.232;8.252;2023-02-23T14:49:37;49.22;;;16.15;;
58242;SDS011;50118;53.232;8.252;2023-02-23T14:52:08;41.28;;;14.27;;
58242;SDS011;50118;53.232;8.252;2023-02-23T14:54:43;40.95;;;13.43;;
58242;SDS011;50118;53.232;8.252;2023-02-23T14:57:33;47.95;;;15.57;;
58242;SDS011;50118;53.232;8.252;2023-02-23T15:00:00;41.58;;;14.55;;
58242;SDS011;50118;53.232;8.252;2023-02-23T15:02:30;48.50;;;14.13;;
58242;SDS011;50118;53.232;8.252;2023-02-23T15:04:56;43.17;;;11.82;;
58242;SDS011;50118;53.232;8.252;2023-02-23T15:09:55;40.42;;;11.75;;
58242;SDS011;50118;53.232;8.252;2023-02-23T15:12:23;39.78;;;11.00;;
58242;SDS011;50118;53.232;8.252;2023-02-23T15:14:54;33.72;;;8.18;;
58242;SDS011;50118;53.232;8.252;2023-02-23T15:17:23;29.08;;;6.45;;
58242;SDS011;50118;53.232;8.252;2023-02-23T15:19:56;30.02;;;5.85;;
58242;SDS011;50118;53.232;8.252;2023-02-23T15:24:56;32.42;;;5.72;;
58242;SDS011;50118;53.232;8.252;2023-02-23T15:27:27;29.15;;;5.85;;
58242;SDS011;50118;53.232;8.252;2023-02-23T15:30:12;29.73;;;6.25;;
58242;SDS011;50118;53.232;8.252;2023-02-23T15:32:43;30.75;;;6.50;;
58242;SDS011;50118;53.232;8.252;2023-02-23T15:35:10;35.38;;;6.30;;
58242;SDS011;50118;53.232;8.252;2023-02-23T15:37:38;31.70;;;6.07;;
58242;SDS011;50118;53.232;8.252;2023-02-23T15:40:15;31.88;;;6.68;;
58242;SDS011;50118;53.232;8.252;2023-02-23T15:42:44;38.38;;;6.60;;
58242;SDS011;50118;53.232;8.252;2023-02-23T15:45:31;32.25;;;6.53;;
58242;SDS011;50118;53.232;8.252;2023-02-23T15:48:02;33.75;;;6.18;;
58242;SDS011;50118;53.232;8.252;2023-02-23T15:50:35;42.15;;;6.85;;
58242;SDS011;50118;53.232;8.252;2023-02-23T15:53:07;36.33;;;6.55;;
58242;SDS011;50118;53.232;8.252;2023-02-23T15:55:44;31.27;;;6.68;;
58242;SDS011;50118;53.232;8.252;2023-02-23T15:58:16;31.00;;;5.45;;
58242;SDS011;50118;53.232;8.252;2023-02-23T16:00:43;34.53;;;5.22;;
58242;SDS011;50118;53.232;8.252;2023-02-23T16:03:31;31.55;;;5.25;;
58242;SDS011;50118;53.232;8.252;2023-02-23T16:06:00;35.08;;;5.55;;
58242;SDS011;50118;53.232;8.252;2023-02-23T16:08:30;28.50;;;4.63;;
58242;SDS011;50118;53.232;8.252;2023-02-23T16:11:09;30.85;;;5.15;;
58242;SDS011;50118;53.232;8.252;2023-02-23T16:13:44;32.03;;;5.82;;
58242;SDS011;50118;53.232;8.252;2023-02-23T16:16:11;34.65;;;5.50;;
58242;SDS011;50118;53.232;8.252;2023-02-23T16:18:43;29.50;;;4.60;;
58242;SDS011;50118;53.232;8.252;2023-02-23T16:21:14;31.80;;;4.88;;
58242;SDS011;50118;53.232;8.252;2023-02-23T16:23:46;31.73;;;5.45;;
58242;SDS011;50118;53.232;8.252;2023-02-23T16:28:56;27.92;;;4.93;;
58242;SDS011;50118;53.232;8.252;2023-02-23T16:32:00;26.00;;;4.28;;
58242;SDS011;50118;53.232;8.252;2023-02-23T16:34:28;33.75;;;4.88;;
58242;SDS011;50118;53.232;8.252;2023-02-23T16:37:15;31.63;;;4.88;;
58242;SDS011;50118;53.232;8.252;2023-02-23T16:42:42;27.70;;;5.28;;
58242;SDS011;50118;53.232;8.252;2023-02-23T16:45:01;20.33;;;3.67;;
58242;SDS011;50118;53.232;8.252;2023-02-23T16:50:15;26.63;;;4.32;;
58242;SDS011;50118;53.232;8.252;2023-02-23T16:52:46;17.27;;;4.05;;
58242;SDS011;50118;53.232;8.252;2023-02-23T16:55:18;16.55;;;3.05;;
58242;SDS011;50118;53.232;8.252;2023-02-23T16:57:49;18.23;;;3.65;;
58242;SDS011;50118;53.232;8.252;2023-02-23T17:00:20;23.02;;;4.60;;
58242;SDS011;50118;53.232;8.252;2023-02-23T17:02:48;19.48;;;3.97;;
58242;SDS011;50118;53.232;8.252;2023-02-23T17:05:16;16.75;;;3.50;;
58242;SDS011;50118;53.232;8.252;2023-02-23T17:07:43;19.75;;;3.22;;
58242;SDS011;50118;53.232;8.252;2023-02-23T17:10:13;14.55;;;3.15;;
58242;SDS011;50118;53.232;8.252;2023-02-23T17:13:34;19.27;;;3.30;;
58242;SDS011;50118;53.232;8.252;2023-02-23T17:15:51;20.73;;;3.83;;
58242;SDS011;50118;53.232;8.252;2023-02-23T17:18:20;18.02;;;3.67;;
58242;SDS011;50118;53.232;8.252;2023-02-23T17:20:50;21.45;;;5.80;;
58242;SDS011;50118;53.232;8.252;2023-02-23T17:23:17;18.30;;;3.50;;